»·PEaware :: AAL1494 KSAN-KPHX

AAL1494 :: KSAN-KPHX

FLIGHT INFORMATION

Flight Status: Arrived
Operator:
American Airlines
More flights by this operator :: More flights under this callsign
Pilot: Michael C. (16705)
Aircraft: BOEING 737-800
(B738)
More flights by this aircraft type
Origin: KSAN San Diego Intl-Lindbergh
United States
Destination: KPHX Phoenix Sky Harbor Intl
United States
More flights between these airports :: More routes between these airports
Route: +ZZOOO1 IPL J18 BZA DCT HOGGZ HYDRR1
File this flight plan on PilotEdge
Remarks: PBN / A1B1C1D1L1O1S1 NAV / RNVD1E2A1 DOF / 170925 REG / N838NN EET / KZAB0025 RVR / 200 PER / C
Altitude:
(Current/Filed)
350ft
Speed:
(Current/Filed)
460kts
Departed: 24-Sep-17 06:10 PM
Arrived: 24-Sep-17 07:01 PM
Distance/Time
Traveled:
264nm/0:50
Distance/Time
To Go:
Arrived

Flight Plot

Page will automatically refresh every two minutes.

Flight plan parsing failed; only flown route is shown


Map Options




Map Legend


Flown Route
Filed Route
Departure Airport
Arrival Airport
Navaid (VOR, NDB)
Fix

Horizontal Profiles

Position Reports

Time Latitude Longitude Heading Altitude Ground
Speed
24-Sep-17 17:53 32.732893 -117.201704 80 23ft 0kts
24-Sep-17 17:54 32.732893 -117.201704 80 23ft 0kts
24-Sep-17 17:55 32.732893 -117.201704 80 23ft 0kts
24-Sep-17 17:56 32.732893 -117.201704 80 23ft 0kts
24-Sep-17 17:57 32.732770 -117.202293 58 23ft 2kts
24-Sep-17 17:58 32.732316 -117.202629 8 23ft 0kts
24-Sep-17 17:59 32.732543 -117.202561 16 23ft 4kts
24-Sep-17 18:00 32.733042 -117.202573 348 23ft 0kts
24-Sep-17 18:01 32.733157 -117.202601 348 23ft 3kts
24-Sep-17 18:02 32.735382 -117.202106 58 23ft 10kts
24-Sep-17 18:03 32.734291 -117.197017 105 23ft 15kts
24-Sep-17 18:04 32.732883 -117.191015 105 23ft 22kts
24-Sep-17 18:05 32.730892 -117.182931 107 23ft 28kts
24-Sep-17 18:06 32.729554 -117.177419 106 23ft 7kts
24-Sep-17 18:07 32.729486 -117.177027 91 23ft 0kts
24-Sep-17 18:08 32.729486 -117.177027 91 23ft 0kts
24-Sep-17 18:09 32.729486 -117.177027 91 23ft 0kts
24-Sep-17 18:10 32.729486 -117.177027 91 23ft 0kts
24-Sep-17 18:11 32.729485 -117.177023 91 23ft 0kts
24-Sep-17 18:12 32.729499 -117.176813 79 23ft 0kts
24-Sep-17 18:13 32.729521 -117.176672 78 23ft 6kts
24-Sep-17 18:14 32.731170 -117.179797 286 23ft 78kts
24-Sep-17 18:15 32.742582 -117.226007 287 2278ft 167kts
24-Sep-17 18:16 32.752299 -117.296091 252 4479ft 248kts
24-Sep-17 18:17 32.690491 -117.314814 139 7540ft 283kts
24-Sep-17 18:18 32.636267 -117.242845 114 10729ft 308kts
24-Sep-17 18:19 32.620931 -117.131409 93 12081ft 383kts
24-Sep-17 18:20 32.609525 -117.000413 94 14383ft 410kts
24-Sep-17 18:21 32.612058 -116.863088 75 16657ft 424kts
24-Sep-17 18:22 32.636651 -116.723532 80 18721ft 442kts
24-Sep-17 18:23 32.649875 -116.575658 81 20585ft 457kts
24-Sep-17 18:24 32.663995 -116.423829 80 22257ft 470kts
24-Sep-17 18:25 32.679228 -116.268082 80 23740ft 481kts
24-Sep-17 18:26 32.694159 -116.107959 81 25081ft 492kts
24-Sep-17 18:27 32.709070 -115.946774 81 26187ft 505kts
24-Sep-17 18:28 32.724619 -115.780019 81 27339ft 514kts
24-Sep-17 18:29 32.739879 -115.610207 81 28707ft 515kts
24-Sep-17 18:30 32.751810 -115.441020 86 30216ft 515kts
24-Sep-17 18:31 32.754888 -115.270862 87 31605ft 516kts
24-Sep-17 18:32 32.758412 -115.099916 87 32917ft 516kts
24-Sep-17 18:33 32.762068 -114.929572 88 34119ft 518kts
24-Sep-17 18:34 32.765387 -114.757960 88 34861ft 521kts
24-Sep-17 18:35 32.768344 -114.586880 89 34870ft 517kts
24-Sep-17 18:36 32.770799 -114.415889 89 34870ft 518kts
24-Sep-17 18:37 32.773054 -114.244281 90 34870ft 519kts
24-Sep-17 18:38 32.775098 -114.073112 87 32612ft 519kts
24-Sep-17 18:39 32.793225 -113.902703 82 29307ft 522kts
24-Sep-17 18:40 32.811999 -113.736695 77 27849ft 483kts
24-Sep-17 18:41 32.876145 -113.605378 44 26119ft 454kts
24-Sep-17 18:42 32.958927 -113.496722 45 24057ft 438kts
24-Sep-17 18:43 33.038904 -113.388765 45 21681ft 421kts
24-Sep-17 18:44 33.115061 -113.286124 45 20680ft 413kts
24-Sep-17 18:45 33.190513 -113.183760 45 19104ft 405kts
24-Sep-17 18:46 33.261989 -113.082446 57 17298ft 397kts
24-Sep-17 18:47 33.277941 -112.956396 89 15977ft 369kts
24-Sep-17 18:48 33.280165 -112.836586 88 14970ft 348kts
24-Sep-17 18:49 33.289132 -112.724616 82 13972ft 331kts
24-Sep-17 18:50 33.299835 -112.616981 82 12969ft 321kts
24-Sep-17 18:51 33.309582 -112.512103 83 11969ft 313kts
24-Sep-17 18:52 33.318884 -112.409951 83 11052ft 302kts
24-Sep-17 18:53 33.327330 -112.318268 82 10704ft 261kts
24-Sep-17 18:54 33.335038 -112.233600 83 10075ft 254kts
24-Sep-17 18:55 33.342415 -112.151185 82 9446ft 251kts
24-Sep-17 18:56 33.348018 -112.068002 89 8666ft 249kts
24-Sep-17 18:57 33.346407 -111.986013 90 7444ft 241kts
24-Sep-17 18:58 33.345615 -111.908951 90 5970ft 222kts
24-Sep-17 18:59 33.345546 -111.837366 90 4534ft 204kts
24-Sep-17 19:00 33.378751 -111.806595 352 4070ft 184kts
24-Sep-17 19:01 33.418192 -111.838515 300 3994ft 184kts
24-Sep-17 19:02 33.441145 -111.889833 273 3013ft 162kts
24-Sep-17 19:03 33.440784 -111.940641 268 1980ft 142kts
24-Sep-17 19:04 33.440824 -111.988466 269 1230ft 145kts
24-Sep-17 19:05 33.440458 -112.010709 213 1143ft 9kts
24-Sep-17 19:06 33.440085 -112.010983 210 1143ft 5kts
24-Sep-17 19:07 33.438999 -112.009824 90 1143ft 14kts
24-Sep-17 19:08 33.438944 -112.003675 89 1143ft 18kts
24-Sep-17 19:09 33.438978 -111.997744 90 1143ft 17kts
24-Sep-17 19:10 33.438334 -111.996640 208 1143ft 0kts
24-Sep-17 19:11 33.438333 -111.996641 208 1143ft 0kts

Navigation Log

Ident Type
Flight plan parsing failed, navigation log unavailable